sensor_id;sensor_type;location;lat;lon;timestamp;temperature;humidity
47350;DHT22;33088;51.982;5.872;2022-07-29T00:02:14;16.90;99.90
47350;DHT22;33088;51.982;5.872;2022-07-29T00:04:40;16.90;99.90
47350;DHT22;33088;51.982;5.872;2022-07-29T00:07:05;16.90;99.90
47350;DHT22;33088;51.982;5.872;2022-07-29T00:09:31;16.90;99.90
47350;DHT22;33088;51.982;5.872;2022-07-29T00:12:00;16.80;99.90
47350;DHT22;33088;51.982;5.872;2022-07-29T00:14:26;16.90;99.90
47350;DHT22;33088;51.982;5.872;2022-07-29T00:16:52;16.80;99.90
47350;DHT22;33088;51.982;5.872;2022-07-29T00:19:18;16.80;99.90
47350;DHT22;33088;51.982;5.872;2022-07-29T00:21:43;16.80;99.90
47350;DHT22;33088;51.982;5.872;2022-07-29T00:24:09;16.80;99.90
47350;DHT22;33088;51.982;5.872;2022-07-29T00:26:35;16.80;99.90
47350;DHT22;33088;51.982;5.872;2022-07-29T00:29:03;16.80;99.90
47350;DHT22;33088;51.982;5.872;2022-07-29T00:31:29;16.80;99.90
47350;DHT22;33088;51.982;5.872;2022-07-29T00:33:55;16.80;99.90
47350;DHT22;33088;51.982;5.872;2022-07-29T00:36:21;16.70;99.90
47350;DHT22;33088;51.982;5.872;2022-07-29T00:38:49;16.80;99.90
47350;DHT22;33088;51.982;5.872;2022-07-29T00:41:15;16.80;99.90
47350;DHT22;33088;51.982;5.872;2022-07-29T00:43:41;16.70;99.90
47350;DHT22;33088;51.982;5.872;2022-07-29T00:46:07;16.70;99.90
47350;DHT22;33088;51.982;5.872;2022-07-29T00:48:33;16.70;99.90
47350;DHT22;33088;51.982;5.872;2022-07-29T00:51:00;16.70;99.90
47350;DHT22;33088;51.982;5.872;2022-07-29T00:53:27;16.60;99.90
47350;DHT22;33088;51.982;5.872;2022-07-29T00:55:55;16.60;99.90
47350;DHT22;33088;51.982;5.872;2022-07-29T00:58:21;16.70;99.90
47350;DHT22;33088;51.982;5.872;2022-07-29T01:00:47;16.60;99.90
47350;DHT22;33088;51.982;5.872;2022-07-29T01:03:13;16.60;99.90
47350;DHT22;33088;51.982;5.872;2022-07-29T01:05:41;16.70;99.90
47350;DHT22;33088;51.982;5.872;2022-07-29T01:08:07;16.70;99.90
47350;DHT22;33088;51.982;5.872;2022-07-29T01:10:34;16.60;99.90
47350;DHT22;33088;51.982;5.872;2022-07-29T01:13:03;16.60;99.90
47350;DHT22;33088;51.982;5.872;2022-07-29T01:15:29;16.60;99.90
47350;DHT22;33088;51.982;5.872;2022-07-29T01:18:01;16.60;99.90
47350;DHT22;33088;51.982;5.872;2022-07-29T01:25:58;16.60;99.90
47350;DHT22;33088;51.982;5.872;2022-07-29T01:31:11;16.50;99.90
47350;DHT22;33088;51.982;5.872;2022-07-29T01:33:41;16.50;99.90
47350;DHT22;33088;51.982;5.872;2022-07-29T01:36:25;16.60;99.90
47350;DHT22;33088;51.982;5.872;2022-07-29T01:39:25;16.60;99.90
47350;DHT22;33088;51.982;5.872;2022-07-29T01:42:04;16.60;99.90
47350;DHT22;33088;51.982;5.872;2022-07-29T01:44:39;16.60;99.90
47350;DHT22;33088;51.982;5.872;2022-07-29T01:47:20;16.50;99.90
47350;DHT22;33088;51.982;5.872;2022-07-29T01:49:50;16.50;99.90
47350;DHT22;33088;51.982;5.872;2022-07-29T01:52:33;16.50;99.90
47350;DHT22;33088;51.982;5.872;2022-07-29T01:55:04;16.50;99.90
47350;DHT22;33088;51.982;5.872;2022-07-29T01:57:33;16.40;99.90
47350;DHT22;33088;51.982;5.872;2022-07-29T02:00:00;16.50;99.90
47350;DHT22;33088;51.982;5.872;2022-07-29T02:02:39;16.50;99.90
47350;DHT22;33088;51.982;5.872;2022-07-29T02:05:08;16.50;99.90
47350;DHT22;33088;51.982;5.872;2022-07-29T02:07:37;16.50;99.90
47350;DHT22;33088;51.982;5.872;2022-07-29T02:10:04;16.50;99.90
47350;DHT22;33088;51.982;5.872;2022-07-29T02:12:32;16.50;99.90
47350;DHT22;33088;51.982;5.872;2022-07-29T02:15:00;16.50;99.90
47350;DHT22;33088;51.982;5.872;2022-07-29T02:17:31;16.40;99.90
47350;DHT22;33088;51.982;5.872;2022-07-29T02:20:00;16.40;99.90
47350;DHT22;33088;51.982;5.872;2022-07-29T02:22:29;16.50;99.90
47350;DHT22;33088;51.982;5.872;2022-07-29T02:24:56;16.40;99.90
47350;DHT22;33088;51.982;5.872;2022-07-29T02:27:23;16.50;99.90
47350;DHT22;33088;51.982;5.872;2022-07-29T02:29:51;16.50;99.90
47350;DHT22;33088;51.982;5.872;2022-07-29T02:32:19;16.50;99.90
47350;DHT22;33088;51.982;5.872;2022-07-29T02:34:47;16.40;99.90
47350;DHT22;33088;51.982;5.872;2022-07-29T02:37:13;16.50;99.90
47350;DHT22;33088;51.982;5.872;2022-07-29T02:39:42;16.40;99.90
47350;DHT22;33088;51.982;5.872;2022-07-29T02:42:12;16.30;99.90
47350;DHT22;33088;51.982;5.872;2022-07-29T02:44:39;16.30;99.90
47350;DHT22;33088;51.982;5.872;2022-07-29T02:47:42;16.20;99.90
47350;DHT22;33088;51.982;5.872;2022-07-29T02:50:21;16.10;99.90
47350;DHT22;33088;51.982;5.872;2022-07-29T02:53:07;15.90;99.90
47350;DHT22;33088;51.982;5.872;2022-07-29T02:55:37;16.00;99.90
47350;DHT22;33088;51.982;5.872;2022-07-29T03:00:55;15.70;99.90
47350;DHT22;33088;51.982;5.872;2022-07-29T03:03:22;15.70;99.90
47350;DHT22;33088;51.982;5.872;2022-07-29T03:05:54;15.70;99.90
47350;DHT22;33088;51.982;5.872;2022-07-29T03:08:22;15.60;99.90
47350;DHT22;33088;51.982;5.872;2022-07-29T03:10:48;15.50;99.90
47350;DHT22;33088;51.982;5.872;2022-07-29T03:13:16;15.50;99.90
47350;DHT22;33088;51.982;5.872;2022-07-29T03:15:43;15.40;99.90
47350;DHT22;33088;51.982;5.872;2022-07-29T03:18:10;15.40;99.90
47350;DHT22;33088;51.982;5.872;2022-07-29T03:20:37;15.30;99.90
47350;DHT22;33088;51.982;5.872;2022-07-29T03:23:03;15.20;99.90
47350;DHT22;33088;51.982;5.872;2022-07-29T03:25:30;15.00;99.90
47350;DHT22;33088;51.982;5.872;2022-07-29T03:27:56;14.80;99.90
47350;DHT22;33088;51.982;5.872;2022-07-29T03:30:23;14.70;99.90
47350;DHT22;33088;51.982;5.872;2022-07-29T03:32:49;14.60;99.90
47350;DHT22;33088;51.982;5.872;2022-07-29T03:35:15;14.50;99.90
47350;DHT22;33088;51.982;5.872;2022-07-29T03:37:45;14.40;99.90
47350;DHT22;33088;51.982;5.872;2022-07-29T03:40:14;14.30;99.90
47350;DHT22;33088;51.982;5.872;2022-07-29T03:42:43;14.20;99.90
47350;DHT22;33088;51.982;5.872;2022-07-29T03:45:15;14.20;99.90
47350;DHT22;33088;51.982;5.872;2022-07-29T03:47:46;14.20;99.90
47350;DHT22;33088;51.982;5.872;2022-07-29T03:50:15;14.20;99.90
47350;DHT22;33088;51.982;5.872;2022-07-29T03:52:41;14.10;99.90
47350;DHT22;33088;51.982;5.872;2022-07-29T03:55:08;14.10;99.90
47350;DHT22;33088;51.982;5.872;2022-07-29T03:57:35;14.00;99.90
47350;DHT22;33088;51.982;5.872;2022-07-29T04:00:03;13.90;99.90
47350;DHT22;33088;51.982;5.872;2022-07-29T04:02:30;13.90;99.90
47350;DHT22;33088;51.982;5.872;2022-07-29T04:04:57;13.80;99.90
47350;DHT22;33088;51.982;5.872;2022-07-29T04:07:23;13.80;99.90
47350;DHT22;33088;51.982;5.872;2022-07-29T04:09:48;13.90;99.90
47350;DHT22;33088;51.982;5.872;2022-07-29T04:12:14;13.80;99.90
47350;DHT22;33088;51.982;5.872;2022-07-29T04:14:40;13.90;99.90
47350;DHT22;33088;51.982;5.872;2022-07-29T04:17:05;13.80;99.90
47350;DHT22;33088;51.982;5.872;2022-07-29T04:19:31;13.90;99.90
47350;DHT22;33088;51.982;5.872;2022-07-29T04:21:59;13.90;99.90
47350;DHT22;33088;51.982;5.872;2022-07-29T04:24:25;13.90;99.90
47350;DHT22;33088;51.982;5.872;2022-07-29T04:26:51;13.90;99.90
47350;DHT22;33088;51.982;5.872;2022-07-29T04:29:16;14.00;99.90
47350;DHT22;33088;51.982;5.872;2022-07-29T04:31:43;14.10;99.90
47350;DHT22;33088;51.982;5.872;2022-07-29T04:34:09;14.20;99.90
47350;DHT22;33088;51.982;5.872;2022-07-29T04:36:35;14.20;99.90
47350;DHT22;33088;51.982;5.872;2022-07-29T04:39:01;14.10;99.90
47350;DHT22;33088;51.982;5.872;2022-07-29T04:41:27;14.10;99.90
47350;DHT22;33088;51.982;5.872;2022-07-29T04:43:53;14.10;99.90
47350;DHT22;33088;51.982;5.872;2022-07-29T04:46:19;14.00;99.90
47350;DHT22;33088;51.982;5.872;2022-07-29T04:48:46;14.00;99.90
47350;DHT22;33088;51.982;5.872;2022-07-29T04:51:12;14.00;99.90
47350;DHT22;33088;51.982;5.872;2022-07-29T04:53:38;14.10;99.90
47350;DHT22;33088;51.982;5.872;2022-07-29T04:56:04;14.20;99.90
47350;DHT22;33088;51.982;5.872;2022-07-29T04:58:30;14.20;99.90
47350;DHT22;33088;51.982;5.872;2022-07-29T05:00:56;14.20;99.90
47350;DHT22;33088;51.982;5.872;2022-07-29T05:03:22;14.20;99.90
47350;DHT22;33088;51.982;5.872;2022-07-29T05:05:48;14.20;99.90
47350;DHT22;33088;51.982;5.872;2022-07-29T05:08:13;14.20;99.90
47350;DHT22;33088;51.982;5.872;2022-07-29T05:10:39;14.20;99.90
47350;DHT22;33088;51.982;5.872;2022-07-29T05:13:06;14.20;99.90
47350;DHT22;33088;51.982;5.872;2022-07-29T05:15:33;14.30;99.90
47350;DHT22;33088;51.982;5.872;2022-07-29T05:17:59;14.20;99.90
47350;DHT22;33088;51.982;5.872;2022-07-29T05:20:25;14.20;99.90
47350;DHT22;33088;51.982;5.872;2022-07-29T05:22:58;14.30;99.90
47350;DHT22;33088;51.982;5.872;2022-07-29T05:25:27;14.20;99.90
47350;DHT22;33088;51.982;5.872;2022-07-29T05:27:53;14.20;99.90
47350;DHT22;33088;51.982;5.872;2022-07-29T05:30:20;14.20;99.90
47350;DHT22;33088;51.982;5.872;2022-07-29T05:32:46;14.30;99.90
47350;DHT22;33088;51.982;5.872;2022-07-29T05:35:12;14.40;99.90
47350;DHT22;33088;51.982;5.872;2022-07-29T05:37:38;14.50;99.90
47350;DHT22;33088;51.982;5.872;2022-07-29T05:40:05;14.60;99.90
47350;DHT22;33088;51.982;5.872;2022-07-29T05:42:30;14.60;99.90
47350;DHT22;33088;51.982;5.872;2022-07-29T05:44:56;14.70;99.90
47350;DHT22;33088;51.982;5.872;2022-07-29T05:47:23;14.70;99.90
47350;DHT22;33088;51.982;5.872;2022-07-29T05:49:49;14.70;99.90
47350;DHT22;33088;51.982;5.872;2022-07-29T05:52:15;14.60;99.90
47350;DHT22;33088;51.982;5.872;2022-07-29T05:54:41;14.80;99.90
47350;DHT22;33088;51.982;5.872;2022-07-29T05:57:07;14.80;99.90
47350;DHT22;33088;51.982;5.872;2022-07-29T05:59:36;14.70;99.90
47350;DHT22;33088;51.982;5.872;2022-07-29T06:02:03;14.70;99.90
47350;DHT22;33088;51.982;5.872;2022-07-29T06:04:31;14.70;99.90
47350;DHT22;33088;51.982;5.872;2022-07-29T06:06:57;14.70;99.90
47350;DHT22;33088;51.982;5.872;2022-07-29T06:09:23;14.70;99.90
47350;DHT22;33088;51.982;5.872;2022-07-29T06:11:48;14.70;99.90
47350;DHT22;33088;51.982;5.872;2022-07-29T06:14:14;14.80;99.90
47350;DHT22;33088;51.982;5.872;2022-07-29T06:16:40;15.00;99.90
47350;DHT22;33088;51.982;5.872;2022-07-29T06:19:06;15.00;99.90
47350;DHT22;33088;51.982;5.872;2022-07-29T06:21:32;15.10;99.90
47350;DHT22;33088;51.982;5.872;2022-07-29T06:23:59;15.30;99.90
47350;DHT22;33088;51.982;5.872;2022-07-29T06:26:24;15.30;99.90
47350;DHT22;33088;51.982;5.872;2022-07-29T06:28:50;15.40;99.90
47350;DHT22;33088;51.982;5.872;2022-07-29T06:31:16;15.50;99.90
47350;DHT22;33088;51.982;5.872;2022-07-29T06:33:41;15.50;99.90
47350;DHT22;33088;51.982;5.872;2022-07-29T06:36:07;15.70;99.90
47350;DHT22;33088;51.982;5.872;2022-07-29T06:38:33;15.70;99.90
47350;DHT22;33088;51.982;5.872;2022-07-29T06:40:59;15.80;99.90
47350;DHT22;33088;51.982;5.872;2022-07-29T06:43:31;15.90;99.90
47350;DHT22;33088;51.982;5.872;2022-07-29T06:46:00;16.00;99.90
47350;DHT22;33088;51.982;5.872;2022-07-29T06:48:27;16.20;99.90
47350;DHT22;33088;51.982;5.872;2022-07-29T06:50:53;16.30;99.90
47350;DHT22;33088;51.982;5.872;2022-07-29T06:53:19;16.40;99.90
47350;DHT22;33088;51.982;5.872;2022-07-29T06:55:44;16.60;99.90
47350;DHT22;33088;51.982;5.872;2022-07-29T06:58:10;17.00;99.90
47350;DHT22;33088;51.982;5.872;2022-07-29T07:00:37;17.30;99.90
47350;DHT22;33088;51.982;5.872;2022-07-29T07:03:02;17.60;99.90
47350;DHT22;33088;51.982;5.872;2022-07-29T07:05:28;17.80;99.90
47350;DHT22;33088;51.982;5.872;2022-07-29T07:07:54;17.90;99.90
47350;DHT22;33088;51.982;5.872;2022-07-29T07:10:20;17.90;99.90
47350;DHT22;33088;51.982;5.872;2022-07-29T07:12:45;18.00;99.90
47350;DHT22;33088;51.982;5.872;2022-07-29T07:15:11;17.90;99.90
47350;DHT22;33088;51.982;5.872;2022-07-29T07:17:37;17.90;99.90
47350;DHT22;33088;51.982;5.872;2022-07-29T07:20:05;17.90;99.90
47350;DHT22;33088;51.982;5.872;2022-07-29T07:22:31;17.80;99.90
47350;DHT22;33088;51.982;5.872;2022-07-29T07:24:57;17.90;99.90
47350;DHT22;33088;51.982;5.872;2022-07-29T07:27:22;17.80;99.90
47350;DHT22;33088;51.982;5.872;2022-07-29T07:29:48;17.90;99.90
47350;DHT22;33088;51.982;5.872;2022-07-29T07:32:14;17.70;99.90
47350;DHT22;33088;51.982;5.872;2022-07-29T07:34:42;17.80;99.90
47350;DHT22;33088;51.982;5.872;2022-07-29T07:37:08;17.80;99.90
47350;DHT22;33088;51.982;5.872;2022-07-29T07:39:34;17.80;99.90
47350;DHT22;33088;51.982;5.872;2022-07-29T07:42:00;17.70;99.90
47350;DHT22;33088;51.982;5.872;2022-07-29T07:44:26;17.70;99.90
47350;DHT22;33088;51.982;5.872;2022-07-29T07:46:51;17.80;99.90
47350;DHT22;33088;51.982;5.872;2022-07-29T07:49:17;17.90;99.90
47350;DHT22;33088;51.982;5.872;2022-07-29T07:51:43;18.10;99.90
47350;DHT22;33088;51.982;5.872;2022-07-29T07:54:09;18.10;99.90
47350;DHT22;33088;51.982;5.872;2022-07-29T07:56:35;17.90;99.90
47350;DHT22;33088;51.982;5.872;2022-07-29T07:59:01;17.90;99.90
47350;DHT22;33088;51.982;5.872;2022-07-29T08:01:26;17.90;99.90
47350;DHT22;33088;51.982;5.872;2022-07-29T08:03:52;17.90;99.90
47350;DHT22;33088;51.982;5.872;2022-07-29T08:06:18;18.00;99.90
47350;DHT22;33088;51.982;5.872;2022-07-29T08:08:44;17.90;99.90
47350;DHT22;33088;51.982;5.872;2022-07-29T08:11:09;18.00;99.90
47350;DHT22;33088;51.982;5.872;2022-07-29T08:13:36;18.10;99.90
47350;DHT22;33088;51.982;5.872;2022-07-29T08:16:03;18.20;99.90
47350;DHT22;33088;51.982;5.872;2022-07-29T08:18:39;18.20;99.90
47350;DHT22;33088;51.982;5.872;2022-07-29T08:21:05;18.20;99.90
47350;DHT22;33088;51.982;5.872;2022-07-29T08:23:31;18.30;99.90
47350;DHT22;33088;51.982;5.872;2022-07-29T08:26:05;18.40;99.90
47350;DHT22;33088;51.982;5.872;2022-07-29T08:28:31;18.50;99.90
47350;DHT22;33088;51.982;5.872;2022-07-29T08:30:57;18.30;99.90
47350;DHT22;33088;51.982;5.872;2022-07-29T08:33:22;18.30;99.90
47350;DHT22;33088;51.982;5.872;2022-07-29T08:35:48;18.30;99.90
47350;DHT22;33088;51.982;5.872;2022-07-29T08:38:15;18.30;99.90
47350;DHT22;33088;51.982;5.872;2022-07-29T08:40:41;18.30;99.90
47350;DHT22;33088;51.982;5.872;2022-07-29T08:43:07;18.30;99.90
47350;DHT22;33088;51.982;5.872;2022-07-29T08:45:43;18.50;99.90
47350;DHT22;33088;51.982;5.872;2022-07-29T08:48:11;18.70;99.90
47350;DHT22;33088;51.982;5.872;2022-07-29T08:50:38;18.60;99.90
47350;DHT22;33088;51.982;5.872;2022-07-29T08:53:05;18.50;99.90
47350;DHT22;33088;51.982;5.872;2022-07-29T08:55:32;18.50;99.90
47350;DHT22;33088;51.982;5.872;2022-07-29T08:58:00;18.60;99.90
47350;DHT22;33088;51.982;5.872;2022-07-29T09:00:27;18.70;99.90
47350;DHT22;33088;51.982;5.872;2022-07-29T09:02:57;18.60;99.90
47350;DHT22;33088;51.982;5.872;2022-07-29T09:05:24;18.90;99.90
47350;DHT22;33088;51.982;5.872;2022-07-29T09:07:51;19.00;99.90
47350;DHT22;33088;51.982;5.872;2022-07-29T09:10:17;19.10;99.90
47350;DHT22;33088;51.982;5.872;2022-07-29T09:12:43;19.20;99.90
47350;DHT22;33088;51.982;5.872;2022-07-29T09:15:09;19.20;99.90
47350;DHT22;33088;51.982;5.872;2022-07-29T09:17:46;19.30;99.90
47350;DHT22;33088;51.982;5.872;2022-07-29T09:20:15;19.40;99.90
47350;DHT22;33088;51.982;5.872;2022-07-29T09:22:41;19.50;99.90
47350;DHT22;33088;51.982;5.872;2022-07-29T09:25:07;19.30;99.90
47350;DHT22;33088;51.982;5.872;2022-07-29T09:27:33;19.20;99.90
47350;DHT22;33088;51.982;5.872;2022-07-29T09:30:05;19.20;99.90
47350;DHT22;33088;51.982;5.872;2022-07-29T09:32:54;19.20;99.90
47350;DHT22;33088;51.982;5.872;2022-07-29T09:35:22;19.20;99.90
47350;DHT22;33088;51.982;5.872;2022-07-29T09:37:48;19.20;99.90
47350;DHT22;33088;51.982;5.872;2022-07-29T09:40:16;19.10;99.90
47350;DHT22;33088;51.982;5.872;2022-07-29T09:42:43;19.00;99.90
47350;DHT22;33088;51.982;5.872;2022-07-29T09:45:09;19.00;99.90
47350;DHT22;33088;51.982;5.872;2022-07-29T09:47:46;18.90;99.90
47350;DHT22;33088;51.982;5.872;2022-07-29T09:50:13;18.90;99.90
47350;DHT22;33088;51.982;5.872;2022-07-29T09:52:49;19.00;99.90
47350;DHT22;33088;51.982;5.872;2022-07-29T09:55:16;19.30;99.90
47350;DHT22;33088;51.982;5.872;2022-07-29T09:57:42;19.40;99.90
47350;DHT22;33088;51.982;5.872;2022-07-29T10:00:11;19.40;99.90
47350;DHT22;33088;51.982;5.872;2022-07-29T10:02:40;19.50;99.90
47350;DHT22;33088;51.982;5.872;2022-07-29T10:05:17;19.70;99.90
47350;DHT22;33088;51.982;5.872;2022-07-29T10:07:49;19.90;99.90
47350;DHT22;33088;51.982;5.872;2022-07-29T10:10:20;20.20;99.90
47350;DHT22;33088;51.982;5.872;2022-07-29T10:12:54;20.40;99.90
47350;DHT22;33088;51.982;5.872;2022-07-29T10:15:25;20.60;99.90
47350;DHT22;33088;51.982;5.872;2022-07-29T10:17:52;20.70;99.90
47350;DHT22;33088;51.982;5.872;2022-07-29T10:20:20;20.80;99.90
47350;DHT22;33088;51.982;5.872;2022-07-29T10:22:47;20.90;99.90
47350;DHT22;33088;51.982;5.872;2022-07-29T10:25:14;20.90;99.90
47350;DHT22;33088;51.982;5.872;2022-07-29T10:27:40;21.00;99.90
47350;DHT22;33088;51.982;5.872;2022-07-29T10:30:06;21.10;99.90
47350;DHT22;33088;51.982;5.872;2022-07-29T10:43:42;21.90;99.90
47350;DHT22;33088;51.982;5.872;2022-07-29T10:46:10;21.90;99.90
47350;DHT22;33088;51.982;5.872;2022-07-29T10:49:12;22.10;99.90
47350;DHT22;33088;51.982;5.872;2022-07-29T10:57:25;22.70;99.90
47350;DHT22;33088;51.982;5.872;2022-07-29T11:02:40;22.80;99.90
47350;DHT22;33088;51.982;5.872;2022-07-29T11:07:40;23.10;99.90
47350;DHT22;33088;51.982;5.872;2022-07-29T11:15:08;23.40;99.90
47350;DHT22;33088;51.982;5.872;2022-07-29T11:22:56;22.90;99.90
47350;DHT22;33088;51.982;5.872;2022-07-29T11:25:23;23.00;99.90
47350;DHT22;33088;51.982;5.872;2022-07-29T11:27:49;23.00;99.90
47350;DHT22;33088;51.982;5.872;2022-07-29T11:30:15;23.20;99.90
47350;DHT22;33088;51.982;5.872;2022-07-29T11:32:42;23.30;99.90
47350;DHT22;33088;51.982;5.872;2022-07-29T11:35:18;23.30;99.90
47350;DHT22;33088;51.982;5.872;2022-07-29T11:37:46;23.20;99.90
47350;DHT22;33088;51.982;5.872;2022-07-29T11:40:13;23.10;99.90
47350;DHT22;33088;51.982;5.872;2022-07-29T11:42:41;23.30;99.90
47350;DHT22;33088;51.982;5.872;2022-07-29T11:47:48;23.60;99.90
47350;DHT22;33088;51.982;5.872;2022-07-29T11:50:17;23.80;99.90
47350;DHT22;33088;51.982;5.872;2022-07-29T11:52:47;23.80;99.90
47350;DHT22;33088;51.982;5.872;2022-07-29T11:55:17;23.70;99.90
47350;DHT22;33088;51.982;5.872;2022-07-29T11:57:47;23.80;99.90
47350;DHT22;33088;51.982;5.872;2022-07-29T12:00:27;23.70;99.90
47350;DHT22;33088;51.982;5.872;2022-07-29T12:02:54;23.70;99.90
47350;DHT22;33088;51.982;5.872;2022-07-29T12:05:20;24.10;99.90
47350;DHT22;33088;51.982;5.872;2022-07-29T12:07:47;24.40;98.70
47350;DHT22;33088;51.982;5.872;2022-07-29T12:10:14;24.40;98.90
47350;DHT22;33088;51.982;5.872;2022-07-29T12:12:40;24.30;98.50
47350;DHT22;33088;51.982;5.872;2022-07-29T12:15:17;24.40;98.10
47350;DHT22;33088;51.982;5.872;2022-07-29T12:17:46;24.30;98.40
47350;DHT22;33088;51.982;5.872;2022-07-29T12:20:12;24.70;99.90
47350;DHT22;33088;51.982;5.872;2022-07-29T12:22:43;24.90;98.60
47350;DHT22;33088;51.982;5.872;2022-07-29T12:25:13;25.10;98.60
47350;DHT22;33088;51.982;5.872;2022-07-29T12:27:44;25.30;99.60
47350;DHT22;33088;51.982;5.872;2022-07-29T12:30:12;25.40;97.70
47350;DHT22;33088;51.982;5.872;2022-07-29T12:32:43;25.50;98.70
47350;DHT22;33088;51.982;5.872;2022-07-29T12:35:15;25.60;98.20
47350;DHT22;33088;51.982;5.872;2022-07-29T12:37:43;25.50;98.70
47350;DHT22;33088;51.982;5.872;2022-07-29T12:40:12;25.50;98.70
47350;DHT22;33088;51.982;5.872;2022-07-29T12:42:39;25.70;98.40
47350;DHT22;33088;51.982;5.872;2022-07-29T12:45:05;25.80;98.60
47350;DHT22;33088;51.982;5.872;2022-07-29T12:47:31;25.80;98.40
47350;DHT22;33088;51.982;5.872;2022-07-29T12:50:12;25.80;98.20
47350;DHT22;33088;51.982;5.872;2022-07-29T12:52:39;25.70;97.10
47350;DHT22;33088;51.982;5.872;2022-07-29T12:55:06;25.60;97.40
47350;DHT22;33088;51.982;5.872;2022-07-29T12:57:43;25.60;97.00
47350;DHT22;33088;51.982;5.872;2022-07-29T13:00:11;25.30;97.90
47350;DHT22;33088;51.982;5.872;2022-07-29T13:02:39;25.40;98.10
47350;DHT22;33088;51.982;5.872;2022-07-29T13:05:07;25.50;98.50
47350;DHT22;33088;51.982;5.872;2022-07-29T13:07:34;25.40;98.20
47350;DHT22;33088;51.982;5.872;2022-07-29T13:10:20;25.50;98.90
47350;DHT22;33088;51.982;5.872;2022-07-29T13:13:07;25.70;98.40
47350;DHT22;33088;51.982;5.872;2022-07-29T13:15:38;26.10;98.50
47350;DHT22;33088;51.982;5.872;2022-07-29T13:18:06;26.40;98.30
47350;DHT22;33088;51.982;5.872;2022-07-29T13:20:50;26.50;98.60
47350;DHT22;33088;51.982;5.872;2022-07-29T13:23:16;26.60;98.30
47350;DHT22;33088;51.982;5.872;2022-07-29T13:25:42;26.80;98.30
47350;DHT22;33088;51.982;5.872;2022-07-29T13:28:07;26.80;97.20
47350;DHT22;33088;51.982;5.872;2022-07-29T13:30:33;26.80;97.00
47350;DHT22;33088;51.982;5.872;2022-07-29T13:32:59;27.00;96.80
47350;DHT22;33088;51.982;5.872;2022-07-29T13:35:25;27.10;97.10
47350;DHT22;33088;51.982;5.872;2022-07-29T13:37:51;27.10;96.00
47350;DHT22;33088;51.982;5.872;2022-07-29T13:40:17;27.00;95.20
47350;DHT22;33088;51.982;5.872;2022-07-29T13:42:43;26.90;95.60
47350;DHT22;33088;51.982;5.872;2022-07-29T13:45:10;27.10;95.40
47350;DHT22;33088;51.982;5.872;2022-07-29T13:47:36;27.00;95.80
47350;DHT22;33088;51.982;5.872;2022-07-29T13:50:03;27.10;95.30
47350;DHT22;33088;51.982;5.872;2022-07-29T13:52:29;27.20;94.90
47350;DHT22;33088;51.982;5.872;2022-07-29T13:54:55;27.40;95.20
47350;DHT22;33088;51.982;5.872;2022-07-29T13:57:21;27.50;95.60
47350;DHT22;33088;51.982;5.872;2022-07-29T13:59:47;27.50;95.00
47350;DHT22;33088;51.982;5.872;2022-07-29T14:02:12;27.50;95.20
47350;DHT22;33088;51.982;5.872;2022-07-29T14:04:39;27.60;94.00
47350;DHT22;33088;51.982;5.872;2022-07-29T14:07:05;27.70;94.90
47350;DHT22;33088;51.982;5.872;2022-07-29T14:09:31;27.40;95.00
47350;DHT22;33088;51.982;5.872;2022-07-29T14:11:56;27.30;95.30
47350;DHT22;33088;51.982;5.872;2022-07-29T14:14:22;26.90;95.00
47350;DHT22;33088;51.982;5.872;2022-07-29T14:16:50;26.80;95.00
47350;DHT22;33088;51.982;5.872;2022-07-29T14:19:15;26.80;95.30
47350;DHT22;33088;51.982;5.872;2022-07-29T14:21:41;26.70;94.10
47350;DHT22;33088;51.982;5.872;2022-07-29T14:24:07;26.60;94.90
47350;DHT22;33088;51.982;5.872;2022-07-29T14:26:33;26.60;95.20
47350;DHT22;33088;51.982;5.872;2022-07-29T14:29:01;26.90;94.70
47350;DHT22;33088;51.982;5.872;2022-07-29T14:31:26;27.00;94.70
47350;DHT22;33088;51.982;5.872;2022-07-29T14:33:52;26.80;95.00
47350;DHT22;33088;51.982;5.872;2022-07-29T14:36:18;26.70;95.30
47350;DHT22;33088;51.982;5.872;2022-07-29T14:38:43;26.60;95.00
47350;DHT22;33088;51.982;5.872;2022-07-29T14:41:09;26.40;95.50
47350;DHT22;33088;51.982;5.872;2022-07-29T14:43:35;26.20;95.30
47350;DHT22;33088;51.982;5.872;2022-07-29T14:46:01;26.00;95.40
47350;DHT22;33088;51.982;5.872;2022-07-29T14:48:27;25.90;95.60
47350;DHT22;33088;51.982;5.872;2022-07-29T14:50:53;25.80;95.20
47350;DHT22;33088;51.982;5.872;2022-07-29T14:53:20;25.70;95.70
47350;DHT22;33088;51.982;5.872;2022-07-29T14:55:45;25.50;95.20
47350;DHT22;33088;51.982;5.872;2022-07-29T14:58:11;25.50;95.80
47350;DHT22;33088;51.982;5.872;2022-07-29T15:00:37;25.60;94.90
47350;DHT22;33088;51.982;5.872;2022-07-29T15:03:04;25.90;94.60
47350;DHT22;33088;51.982;5.872;2022-07-29T15:05:30;26.20;94.00
47350;DHT22;33088;51.982;5.872;2022-07-29T15:07:57;26.30;93.70
47350;DHT22;33088;51.982;5.872;2022-07-29T15:10:22;26.50;93.70
47350;DHT22;33088;51.982;5.872;2022-07-29T15:12:48;26.50;93.10
47350;DHT22;33088;51.982;5.872;2022-07-29T15:15:14;26.50;93.30
47350;DHT22;33088;51.982;5.872;2022-07-29T15:17:40;26.60;94.90
47350;DHT22;33088;51.982;5.872;2022-07-29T15:20:06;26.40;93.90
47350;DHT22;33088;51.982;5.872;2022-07-29T15:22:32;26.20;93.60
47350;DHT22;33088;51.982;5.872;2022-07-29T15:24:57;25.90;94.40
47350;DHT22;33088;51.982;5.872;2022-07-29T15:27:23;25.80;94.80
47350;DHT22;33088;51.982;5.872;2022-07-29T15:29:49;25.70;94.80
47350;DHT22;33088;51.982;5.872;2022-07-29T15:32:14;25.50;95.00
47350;DHT22;33088;51.982;5.872;2022-07-29T15:34:40;25.60;95.00
47350;DHT22;33088;51.982;5.872;2022-07-29T15:37:06;25.60;95.10
47350;DHT22;33088;51.982;5.872;2022-07-29T15:39:32;25.50;94.90
47350;DHT22;33088;51.982;5.872;2022-07-29T15:41:58;25.30;94.60
47350;DHT22;33088;51.982;5.872;2022-07-29T15:44:26;25.20;95.30
47350;DHT22;33088;51.982;5.872;2022-07-29T15:46:52;25.20;95.80
47350;DHT22;33088;51.982;5.872;2022-07-29T15:49:40;25.20;95.80
47350;DHT22;33088;51.982;5.872;2022-07-29T15:52:08;25.00;95.60
47350;DHT22;33088;51.982;5.872;2022-07-29T15:54:36;25.00;96.10
47350;DHT22;33088;51.982;5.872;2022-07-29T15:57:03;24.80;96.90
47350;DHT22;33088;51.982;5.872;2022-07-29T15:59:29;24.60;99.90
47350;DHT22;33088;51.982;5.872;2022-07-29T16:01:55;24.40;98.60
47350;DHT22;33088;51.982;5.872;2022-07-29T16:04:21;24.30;97.90
47350;DHT22;33088;51.982;5.872;2022-07-29T16:06:47;24.20;98.50
47350;DHT22;33088;51.982;5.872;2022-07-29T16:09:13;24.10;98.80
47350;DHT22;33088;51.982;5.872;2022-07-29T16:11:39;24.00;99.90
47350;DHT22;33088;51.982;5.872;2022-07-29T16:14:05;24.00;99.10
47350;DHT22;33088;51.982;5.872;2022-07-29T16:16:31;24.00;98.80
47350;DHT22;33088;51.982;5.872;2022-07-29T16:18:57;24.00;97.80
47350;DHT22;33088;51.982;5.872;2022-07-29T16:21:23;24.00;98.40